createdAt,value
2023-03-22T00:01:19.864Z,18.75
2023-03-22T00:03:48.198Z,18.26
2023-03-22T00:06:16.871Z,18.61
2023-03-22T00:08:45.454Z,19.12
2023-03-22T00:11:13.742Z,20.16
2023-03-22T00:13:42.990Z,19.65
2023-03-22T00:16:13.975Z,20.22
2023-03-22T00:18:42.963Z,19.66
2023-03-22T00:21:13.309Z,18.55
2023-03-22T00:23:41.778Z,19.63
2023-03-22T00:26:09.836Z,19.63
2023-03-22T00:28:38.790Z,19.82
2023-03-22T00:31:07.906Z,19.40
2023-03-22T00:33:37.257Z,19.74
2023-03-22T00:36:07.527Z,19.55
2023-03-22T00:38:42.979Z,19.91
2023-03-22T00:41:13.697Z,19.27
2023-03-22T00:43:43.613Z,19.32
2023-03-22T00:46:12.508Z,19.02
2023-03-22T00:48:41.934Z,18.39
2023-03-22T00:51:11.336Z,19.43
2023-03-22T00:53:42.589Z,19.10
2023-03-22T00:56:13.968Z,18.72
2023-03-22T00:58:50.312Z,18.92
2023-03-22T01:01:18.246Z,18.74
2023-03-22T01:03:49.830Z,19.12
2023-03-22T01:06:17.990Z,18.78
2023-03-22T01:08:46.696Z,19.03
2023-03-22T01:11:18.204Z,18.63
2023-03-22T01:13:47.964Z,19.33
2023-03-22T01:16:16.145Z,19.46
2023-03-22T01:18:44.501Z,19.06
2023-03-22T01:21:13.802Z,18.85
2023-03-22T01:23:42.086Z,19.44
2023-03-22T01:26:10.198Z,19.01
2023-03-22T01:28:40.487Z,19.08
2023-03-22T01:31:08.864Z,19.04
2023-03-22T01:33:36.818Z,19.41
2023-03-22T01:36:05.361Z,18.88
2023-03-22T01:38:36.997Z,19.16
2023-03-22T01:41:05.198Z,19.12
2023-03-22T01:43:37.158Z,19.21
2023-03-22T01:46:05.648Z,19.13
2023-03-22T01:48:38.629Z,19.24
2023-03-22T01:51:10.959Z,19.76
2023-03-22T01:53:55.687Z,19.70
2023-03-22T01:56:26.475Z,19.21
2023-03-22T01:58:56.046Z,19.32
2023-03-22T02:01:31.991Z,18.93
2023-03-22T02:04:07.113Z,18.37
2023-03-22T02:06:38.125Z,19.02
2023-03-22T02:09:18.200Z,19.82
2023-03-22T02:11:52.327Z,18.73
2023-03-22T02:14:45.041Z,18.68
2023-03-22T02:17:38.687Z,18.81
2023-03-22T02:20:47.102Z,18.83
2023-03-22T02:23:48.356Z,18.47
2023-03-22T02:26:46.935Z,18.94
2023-03-22T02:29:22.974Z,19.15
2023-03-22T02:32:32.721Z,18.97
2023-03-22T02:35:26.831Z,19.26
2023-03-22T02:38:21.007Z,20.02
2023-03-22T02:40:55.131Z,19.74
2023-03-22T02:43:38.253Z,19.83
2023-03-22T02:46:11.119Z,20.16
2023-03-22T02:48:45.938Z,19.87
2023-03-22T02:51:20.183Z,19.37
2023-03-22T02:53:55.497Z,19.89
2023-03-22T02:56:28.373Z,19.67
2023-03-22T02:59:00.922Z,19.32
2023-03-22T03:01:32.699Z,19.86
2023-03-22T03:04:04.826Z,20.15
2023-03-22T03:06:38.909Z,19.50
2023-03-22T03:09:08.938Z,19.49
2023-03-22T03:11:38.123Z,19.39
2023-03-22T03:14:06.178Z,18.85
2023-03-22T03:16:36.690Z,19.30
2023-03-22T03:19:13.602Z,18.60
2023-03-22T03:21:50.209Z,19.21
2023-03-22T03:24:28.160Z,19.25
2023-03-22T03:27:03.161Z,19.67
2023-03-22T03:29:38.837Z,19.64
2023-03-22T03:32:12.793Z,18.99
2023-03-22T03:34:49.461Z,18.81
2023-03-22T03:37:21.873Z,18.93
2023-03-22T03:39:53.931Z,19.29
2023-03-22T03:42:26.257Z,19.73
2023-03-22T03:44:54.520Z,19.66
2023-03-22T03:47:24.359Z,19.02
2023-03-22T03:49:52.373Z,18.78
2023-03-22T03:52:24.521Z,19.41
2023-03-22T03:54:52.667Z,19.42
2023-03-22T03:57:28.704Z,19.66
2023-03-22T03:59:56.574Z,19.53
2023-03-22T04:02:41.801Z,20.02
2023-03-22T04:05:18.496Z,18.81
2023-03-22T04:07:46.690Z,19.41
2023-03-22T04:10:14.800Z,19.54
2023-03-22T04:12:43.977Z,19.40
2023-03-22T04:15:18.324Z,19.61
2023-03-22T04:17:53.736Z,19.33
2023-03-22T04:20:26.194Z,19.28
2023-03-22T04:22:54.290Z,19.76
2023-03-22T04:25:22.884Z,19.28
2023-03-22T04:28:04.294Z,19.69
2023-03-22T04:30:36.160Z,19.68
2023-03-22T04:33:32.606Z,19.73
2023-03-22T04:36:15.902Z,20.30
2023-03-22T04:38:59.826Z,19.94
2023-03-22T04:41:29.014Z,19.69
2023-03-22T04:44:03.377Z,20.01
2023-03-22T04:46:34.470Z,19.69
2023-03-22T04:49:06.465Z,19.94
2023-03-22T04:51:38.322Z,19.97
2023-03-22T04:54:18.726Z,19.70
2023-03-22T04:56:46.952Z,20.08
2023-03-22T04:59:20.233Z,19.63
2023-03-22T05:01:50.008Z,19.90
2023-03-22T05:04:21.429Z,20.12
2023-03-22T05:06:53.325Z,20.07
2023-03-22T05:09:27.485Z,20.29
2023-03-22T05:11:55.896Z,19.53
2023-03-22T05:14:43.663Z,19.81
2023-03-22T05:17:13.714Z,19.32
2023-03-22T05:19:42.092Z,18.36
2023-03-22T05:22:12.018Z,19.02
2023-03-22T05:24:45.529Z,19.30
2023-03-22T05:27:31.599Z,19.25
2023-03-22T05:30:19.854Z,19.03
2023-03-22T05:32:59.696Z,19.25
2023-03-22T05:35:27.943Z,19.65
2023-03-22T05:37:58.157Z,19.10
2023-03-22T05:40:29.249Z,19.11
2023-03-22T05:42:57.372Z,19.40
2023-03-22T05:45:28.959Z,19.71
2023-03-22T05:48:10.476Z,20.07
2023-03-22T05:50:38.913Z,19.19
2023-03-22T05:53:07.623Z,19.51
2023-03-22T05:55:48.574Z,19.62
2023-03-22T05:58:18.997Z,19.62
2023-03-22T06:00:51.452Z,19.19
2023-03-22T06:03:22.416Z,19.29
2023-03-22T06:06:10.677Z,19.39
2023-03-22T06:08:45.268Z,20.03
2023-03-22T06:11:13.861Z,18.88
2023-03-22T06:13:42.048Z,18.78
2023-03-22T06:16:13.902Z,19.08
2023-03-22T06:18:43.759Z,19.26
2023-03-22T06:21:13.576Z,19.36
2023-03-22T06:23:41.448Z,19.28
2023-03-22T06:26:11.496Z,19.27
2023-03-22T06:28:41.257Z,18.96
2023-03-22T06:31:11.013Z,18.82
2023-03-22T06:33:49.477Z,19.53
2023-03-22T06:36:28.502Z,20.48
2023-03-22T06:39:06.568Z,19.54
2023-03-22T06:41:35.091Z,19.98
2023-03-22T06:44:03.669Z,19.32
2023-03-22T06:47:03.867Z,20.11
2023-03-22T06:49:46.638Z,20.20
2023-03-22T06:52:25.674Z,20.27
2023-03-22T06:54:54.018Z,20.64
2023-03-22T06:57:22.017Z,20.30
2023-03-22T06:59:50.060Z,20.42
2023-03-22T07:02:18.054Z,20.79
2023-03-22T07:05:08.215Z,20.29
2023-03-22T07:07:36.297Z,20.52
2023-03-22T07:10:05.513Z,19.88
2023-03-22T07:12:33.949Z,20.58
2023-03-22T07:15:09.450Z,19.16
2023-03-22T07:17:50.384Z,19.58
2023-03-22T07:20:20.057Z,20.07
2023-03-22T07:22:50.888Z,20.33
2023-03-22T07:25:21.318Z,20.60
2023-03-22T07:27:54.891Z,19.74
2023-03-22T07:30:23.591Z,19.96
2023-03-22T07:32:52.501Z,20.75
2023-03-22T07:35:21.881Z,21.02
2023-03-22T07:37:50.213Z,20.69
2023-03-22T07:40:24.153Z,21.37
2023-03-22T07:42:55.920Z,21.08
2023-03-22T07:45:50.085Z,21.11
2023-03-22T07:48:36.898Z,20.27
2023-03-22T07:51:24.030Z,21.14
2023-03-22T07:53:53.073Z,21.34
2023-03-22T07:56:21.093Z,22.85
2023-03-22T07:58:49.030Z,22.03
2023-03-22T08:01:17.039Z,22.88
2023-03-22T08:03:55.283Z,22.35
2023-03-22T08:06:36.927Z,23.13
2023-03-22T08:09:08.424Z,23.69
2023-03-22T08:11:36.564Z,24.00
2023-03-22T08:14:04.696Z,21.67
2023-03-22T08:16:35.205Z,22.92
2023-03-22T08:19:05.330Z,23.36
2023-03-22T08:21:38.358Z,23.15
2023-03-22T08:24:10.421Z,21.41
2023-03-22T08:27:17.158Z,21.38
2023-03-22T08:29:48.885Z,21.24
2023-03-22T08:32:18.602Z,21.07
2023-03-22T08:34:46.694Z,21.29
2023-03-22T08:37:16.142Z,21.21
2023-03-22T08:39:46.220Z,21.79
2023-03-22T08:42:22.304Z,21.64
2023-03-22T08:44:51.978Z,21.89
2023-03-22T08:47:22.168Z,21.96
2023-03-22T08:49:54.293Z,22.58
2023-03-22T08:52:36.208Z,20.80
2023-03-22T08:55:12.186Z,23.27
2023-03-22T08:58:06.412Z,21.28
2023-03-22T09:00:49.775Z,21.95
2023-03-22T09:03:25.989Z,23.04
2023-03-22T09:05:54.602Z,22.79
2023-03-22T09:08:24.020Z,22.48
2023-03-22T09:10:58.681Z,21.92
2023-03-22T09:13:26.938Z,22.76
2023-03-22T09:15:59.507Z,22.82
2023-03-22T09:18:31.202Z,23.49
2023-03-22T09:21:02.513Z,23.23
2023-03-22T09:23:40.182Z,23.25
2023-03-22T09:26:11.152Z,23.72
2023-03-22T09:28:39.971Z,23.69
2023-03-22T09:31:11.654Z,23.02
2023-03-22T09:33:42.038Z,22.45
2023-03-22T09:36:12.754Z,23.88
2023-03-22T09:38:42.814Z,23.08
2023-03-22T09:41:17.185Z,22.92
2023-03-22T09:43:50.527Z,23.21
2023-03-22T09:46:28.149Z,23.61
2023-03-22T09:48:57.766Z,22.87
2023-03-22T09:51:38.458Z,22.55
2023-03-22T09:54:13.995Z,23.14
2023-03-22T09:56:42.197Z,22.65
2023-03-22T09:59:17.209Z,23.01
2023-03-22T10:01:49.422Z,23.17
2023-03-22T10:04:50.313Z,22.09
2023-03-22T10:07:28.816Z,22.94
2023-03-22T10:10:08.075Z,22.30
2023-03-22T10:12:43.519Z,22.30
2023-03-22T10:15:16.092Z,22.68
2023-03-22T10:17:47.540Z,22.61
2023-03-22T10:20:24.955Z,23.30
2023-03-22T10:22:55.827Z,23.01
2023-03-22T10:25:32.754Z,23.75
2023-03-22T10:28:00.637Z,22.64
2023-03-22T10:30:33.830Z,23.65
2023-03-22T10:33:03.641Z,22.97
2023-03-22T10:35:32.362Z,23.19
2023-03-22T10:38:03.514Z,24.07
2023-03-22T10:40:35.062Z,22.56
2023-03-22T10:43:09.527Z,23.64
2023-03-22T10:45:38.673Z,24.74
2023-03-22T10:48:12.368Z,24.83
2023-03-22T10:50:44.316Z,25.04
2023-03-22T10:53:18.580Z,24.67
2023-03-22T10:55:47.804Z,23.06
2023-03-22T10:58:17.532Z,23.16
2023-03-22T11:00:47.470Z,23.67
2023-03-22T11:03:29.405Z,23.32
2023-03-22T11:06:06.653Z,24.53
2023-03-22T11:08:46.344Z,23.81
2023-03-22T11:11:21.143Z,23.57
2023-03-22T11:14:01.064Z,25.02
2023-03-22T11:16:31.759Z,24.14
2023-03-22T11:19:07.776Z,23.76
2023-03-22T11:21:41.897Z,25.14
2023-03-22T11:24:15.291Z,24.20
2023-03-22T11:27:03.470Z,24.03
2023-03-22T11:29:41.125Z,23.94
2023-03-22T11:32:22.207Z,24.03
2023-03-22T11:35:00.782Z,24.06
2023-03-22T11:37:28.990Z,25.17
2023-03-22T11:40:05.213Z,24.06
2023-03-22T11:42:36.932Z,25.19
2023-03-22T11:45:05.659Z,23.46
2023-03-22T11:47:39.317Z,24.20
2023-03-22T11:50:10.963Z,24.78
2023-03-22T11:52:38.982Z,23.93
2023-03-22T11:55:07.307Z,24.86
2023-03-22T11:57:38.114Z,24.69
2023-03-22T12:00:14.220Z,24.66
2023-03-22T12:02:48.429Z,25.49
2023-03-22T12:05:24.662Z,25.06
2023-03-22T12:07:57.465Z,25.05
2023-03-22T12:10:29.969Z,23.88
2023-03-22T12:13:04.466Z,23.62
2023-03-22T12:15:36.212Z,24.38
2023-03-22T12:18:09.004Z,24.75
2023-03-22T12:20:43.487Z,24.14
2023-03-22T12:23:16.600Z,23.81
2023-03-22T12:25:50.572Z,24.88
2023-03-22T12:28:24.202Z,24.52
2023-03-22T12:30:56.176Z,23.93
2023-03-22T12:33:28.329Z,24.88
2023-03-22T12:35:59.705Z,25.34
2023-03-22T12:38:37.715Z,25.04
2023-03-22T12:41:10.728Z,25.52
2023-03-22T12:43:50.568Z,24.68
2023-03-22T12:46:23.755Z,24.09
2023-03-22T12:48:57.035Z,24.46
2023-03-22T12:51:25.206Z,24.31
2023-03-22T12:53:56.683Z,24.87
2023-03-22T12:56:27.742Z,24.44
2023-03-22T12:59:01.104Z,24.22
2023-03-22T13:01:38.033Z,24.45
2023-03-22T13:04:32.600Z,24.15
2023-03-22T13:07:11.285Z,23.83
2023-03-22T13:09:42.553Z,23.78
2023-03-22T13:12:34.839Z,24.04
2023-03-22T13:15:31.640Z,24.27
2023-03-22T13:18:23.932Z,24.95
2023-03-22T13:21:14.151Z,25.46
2023-03-22T13:23:57.625Z,24.73
2023-03-22T13:26:34.671Z,24.11
2023-03-22T13:29:10.226Z,23.92
2023-03-22T13:31:43.854Z,23.97
2023-03-22T13:34:19.459Z,24.10
2023-03-22T13:36:56.466Z,24.09
2023-03-22T13:39:27.452Z,23.72
2023-03-22T13:42:10.115Z,23.53
2023-03-22T13:44:41.874Z,24.23
2023-03-22T13:47:32.440Z,23.81
2023-03-22T13:50:06.831Z,24.13
2023-03-22T13:52:40.780Z,23.82
2023-03-22T13:55:37.189Z,23.58
2023-03-22T13:58:05.862Z,24.49
2023-03-22T14:00:45.032Z,24.48
2023-03-22T14:03:27.166Z,24.34
2023-03-22T14:06:05.376Z,23.85
2023-03-22T14:08:35.686Z,24.45
2023-03-22T14:11:08.817Z,24.53
2023-03-22T14:13:43.887Z,23.79
2023-03-22T14:16:18.993Z,24.52
2023-03-22T14:18:50.523Z,24.22
2023-03-22T14:21:33.560Z,23.39
